sensor_id;sensor_type;location;lat;lon;timestamp;temperature;humidity
69189;DHT22;56302;52.322;5.926;2023-05-07T00:00:21;13.90;89.90
69189;DHT22;56302;52.322;5.926;2023-05-07T00:02:46;13.90;90.10
69189;DHT22;56302;52.322;5.926;2023-05-07T00:05:12;13.80;90.90
69189;DHT22;56302;52.322;5.926;2023-05-07T00:07:38;13.70;91.80
69189;DHT22;56302;52.322;5.926;2023-05-07T00:10:04;13.60;92.50
69189;DHT22;56302;52.322;5.926;2023-05-07T00:12:31;13.60;92.50
69189;DHT22;56302;52.322;5.926;2023-05-07T00:14:59;13.60;92.10
69189;DHT22;56302;52.322;5.926;2023-05-07T00:17:24;13.70;91.70
69189;DHT22;56302;52.322;5.926;2023-05-07T00:19:50;13.70;91.60
69189;DHT22;56302;52.322;5.926;2023-05-07T00:22:15;13.60;91.50
69189;DHT22;56302;52.322;5.926;2023-05-07T00:24:41;13.70;91.50
69189;DHT22;56302;52.322;5.926;2023-05-07T00:27:06;13.70;91.50
69189;DHT22;56302;52.322;5.926;2023-05-07T00:29:32;13.70;91.40
69189;DHT22;56302;52.322;5.926;2023-05-07T00:31:57;13.70;91.60
69189;DHT22;56302;52.322;5.926;2023-05-07T00:34:23;13.60;91.30
69189;DHT22;56302;52.322;5.926;2023-05-07T00:36:49;13.60;91.30
69189;DHT22;56302;52.322;5.926;2023-05-07T00:39:14;13.60;91.20
69189;DHT22;56302;52.322;5.926;2023-05-07T00:41:40;13.60;91.00
69189;DHT22;56302;52.322;5.926;2023-05-07T00:44:06;13.70;91.60
69189;DHT22;56302;52.322;5.926;2023-05-07T00:46:32;13.70;92.60
69189;DHT22;56302;52.322;5.926;2023-05-07T00:48:59;13.70;92.10
69189;DHT22;56302;52.322;5.926;2023-05-07T00:51:25;13.70;92.10
69189;DHT22;56302;52.322;5.926;2023-05-07T00:53:53;13.60;91.40
69189;DHT22;56302;52.322;5.926;2023-05-07T00:56:20;13.60;92.10
69189;DHT22;56302;52.322;5.926;2023-05-07T00:58:46;13.60;92.30
69189;DHT22;56302;52.322;5.926;2023-05-07T01:01:12;13.60;92.40
69189;DHT22;56302;52.322;5.926;2023-05-07T01:03:37;13.60;92.00
69189;DHT22;56302;52.322;5.926;2023-05-07T01:06:04;13.60;92.00
69189;DHT22;56302;52.322;5.926;2023-05-07T01:08:31;13.60;92.10
69189;DHT22;56302;52.322;5.926;2023-05-07T01:10:58;13.60;92.20
69189;DHT22;56302;52.322;5.926;2023-05-07T01:13:24;13.60;92.30
69189;DHT22;56302;52.322;5.926;2023-05-07T01:15:50;13.60;92.60
69189;DHT22;56302;52.322;5.926;2023-05-07T01:18:16;13.50;92.40
69189;DHT22;56302;52.322;5.926;2023-05-07T01:20:42;13.50;92.90
69189;DHT22;56302;52.322;5.926;2023-05-07T01:23:08;13.50;92.80
69189;DHT22;56302;52.322;5.926;2023-05-07T01:25:36;13.50;93.00
69189;DHT22;56302;52.322;5.926;2023-05-07T01:28:01;13.40;92.70
69189;DHT22;56302;52.322;5.926;2023-05-07T01:30:28;13.40;92.30
69189;DHT22;56302;52.322;5.926;2023-05-07T01:33:02;13.50;92.00
69189;DHT22;56302;52.322;5.926;2023-05-07T01:35:34;13.40;92.10
69189;DHT22;56302;52.322;5.926;2023-05-07T01:38:01;13.40;92.50
69189;DHT22;56302;52.322;5.926;2023-05-07T01:40:29;13.40;92.20
69189;DHT22;56302;52.322;5.926;2023-05-07T01:42:55;13.40;92.50
69189;DHT22;56302;52.322;5.926;2023-05-07T01:45:21;13.40;92.20
69189;DHT22;56302;52.322;5.926;2023-05-07T01:47:48;13.40;91.80
69189;DHT22;56302;52.322;5.926;2023-05-07T01:50:16;13.40;91.30
69189;DHT22;56302;52.322;5.926;2023-05-07T01:52:42;13.40;91.10
69189;DHT22;56302;52.322;5.926;2023-05-07T01:55:08;13.40;91.40
69189;DHT22;56302;52.322;5.926;2023-05-07T01:57:34;13.40;92.00
69189;DHT22;56302;52.322;5.926;2023-05-07T01:59:59;13.40;92.10
69189;DHT22;56302;52.322;5.926;2023-05-07T02:02:25;13.30;92.20
69189;DHT22;56302;52.322;5.926;2023-05-07T02:04:50;13.30;92.40
69189;DHT22;56302;52.322;5.926;2023-05-07T02:07:16;13.30;92.10
69189;DHT22;56302;52.322;5.926;2023-05-07T02:09:41;13.30;92.10
69189;DHT22;56302;52.322;5.926;2023-05-07T02:12:07;13.30;92.50
69189;DHT22;56302;52.322;5.926;2023-05-07T02:14:32;13.20;94.30
69189;DHT22;56302;52.322;5.926;2023-05-07T02:16:58;13.10;95.10
69189;DHT22;56302;52.322;5.926;2023-05-07T02:19:23;13.10;95.20
69189;DHT22;56302;52.322;5.926;2023-05-07T02:21:49;13.00;95.50
69189;DHT22;56302;52.322;5.926;2023-05-07T02:24:15;12.90;95.80
69189;DHT22;56302;52.322;5.926;2023-05-07T02:26:40;13.00;95.60
69189;DHT22;56302;52.322;5.926;2023-05-07T02:29:06;13.00;95.10
69189;DHT22;56302;52.322;5.926;2023-05-07T02:31:32;13.10;94.50
69189;DHT22;56302;52.322;5.926;2023-05-07T02:33:59;13.20;94.00
69189;DHT22;56302;52.322;5.926;2023-05-07T02:36:25;13.20;94.40
69189;DHT22;56302;52.322;5.926;2023-05-07T02:38:51;13.20;94.80
69189;DHT22;56302;52.322;5.926;2023-05-07T02:41:17;13.20;94.90
69189;DHT22;56302;52.322;5.926;2023-05-07T02:43:43;13.10;94.80
69189;DHT22;56302;52.322;5.926;2023-05-07T02:46:09;13.10;95.50
69189;DHT22;56302;52.322;5.926;2023-05-07T02:48:35;13.20;95.90
69189;DHT22;56302;52.322;5.926;2023-05-07T02:51:01;13.20;96.30
69189;DHT22;56302;52.322;5.926;2023-05-07T02:53:26;13.10;96.30
69189;DHT22;56302;52.322;5.926;2023-05-07T02:55:53;13.10;96.80
69189;DHT22;56302;52.322;5.926;2023-05-07T02:58:19;13.00;97.60
69189;DHT22;56302;52.322;5.926;2023-05-07T03:00:45;12.90;97.90
69189;DHT22;56302;52.322;5.926;2023-05-07T03:03:10;12.90;98.20
69189;DHT22;56302;52.322;5.926;2023-05-07T03:05:36;13.00;98.30
69189;DHT22;56302;52.322;5.926;2023-05-07T03:08:02;13.00;98.10
69189;DHT22;56302;52.322;5.926;2023-05-07T03:10:28;13.00;97.90
69189;DHT22;56302;52.322;5.926;2023-05-07T03:12:53;13.00;97.80
69189;DHT22;56302;52.322;5.926;2023-05-07T03:15:19;13.00;97.70
69189;DHT22;56302;52.322;5.926;2023-05-07T03:17:44;13.00;97.80
69189;DHT22;56302;52.322;5.926;2023-05-07T03:20:10;13.10;97.90
69189;DHT22;56302;52.322;5.926;2023-05-07T03:22:36;13.10;97.70
69189;DHT22;56302;52.322;5.926;2023-05-07T03:25:01;13.10;97.70
69189;DHT22;56302;52.322;5.926;2023-05-07T03:27:27;13.10;97.90
69189;DHT22;56302;52.322;5.926;2023-05-07T03:29:52;13.00;98.10
69189;DHT22;56302;52.322;5.926;2023-05-07T03:32:18;13.00;98.10
69189;DHT22;56302;52.322;5.926;2023-05-07T03:34:43;13.00;98.20
69189;DHT22;56302;52.322;5.926;2023-05-07T03:37:09;13.00;98.30
69189;DHT22;56302;52.322;5.926;2023-05-07T03:39:35;13.00;98.50
69189;DHT22;56302;52.322;5.926;2023-05-07T03:42:00;13.00;98.60
69189;DHT22;56302;52.322;5.926;2023-05-07T03:44:26;13.00;98.60
69189;DHT22;56302;52.322;5.926;2023-05-07T03:46:51;13.00;98.60
69189;DHT22;56302;52.322;5.926;2023-05-07T03:49:17;13.00;98.40
69189;DHT22;56302;52.322;5.926;2023-05-07T03:51:42;13.00;98.30
69189;DHT22;56302;52.322;5.926;2023-05-07T03:54:08;13.00;98.40
69189;DHT22;56302;52.322;5.926;2023-05-07T03:56:34;13.00;98.50
69189;DHT22;56302;52.322;5.926;2023-05-07T03:59:01;13.00;98.50
69189;DHT22;56302;52.322;5.926;2023-05-07T04:01:26;13.00;98.50
69189;DHT22;56302;52.322;5.926;2023-05-07T04:03:52;13.00;98.40
69189;DHT22;56302;52.322;5.926;2023-05-07T04:06:18;13.00;98.40
69189;DHT22;56302;52.322;5.926;2023-05-07T04:08:43;13.00;98.50
69189;DHT22;56302;52.322;5.926;2023-05-07T04:11:09;13.00;98.50
69189;DHT22;56302;52.322;5.926;2023-05-07T04:13:34;13.00;98.60
69189;DHT22;56302;52.322;5.926;2023-05-07T04:16:01;13.00;98.80
69189;DHT22;56302;52.322;5.926;2023-05-07T04:18:27;13.00;98.90
69189;DHT22;56302;52.322;5.926;2023-05-07T04:20:53;13.00;99.10
69189;DHT22;56302;52.322;5.926;2023-05-07T04:23:19;13.00;99.30
69189;DHT22;56302;52.322;5.926;2023-05-07T04:25:44;13.00;99.50
69189;DHT22;56302;52.322;5.926;2023-05-07T04:28:10;13.00;99.70
69189;DHT22;56302;52.322;5.926;2023-05-07T04:30:36;12.90;99.80
69189;DHT22;56302;52.322;5.926;2023-05-07T04:33:02;12.90;99.80
69189;DHT22;56302;52.322;5.926;2023-05-07T04:35:28;12.90;99.80
69189;DHT22;56302;52.322;5.926;2023-05-07T04:37:53;13.00;99.90
69189;DHT22;56302;52.322;5.926;2023-05-07T04:40:19;12.90;99.90
69189;DHT22;56302;52.322;5.926;2023-05-07T04:42:45;13.00;99.80
69189;DHT22;56302;52.322;5.926;2023-05-07T04:45:10;13.00;99.80
69189;DHT22;56302;52.322;5.926;2023-05-07T04:47:38;13.00;99.90
69189;DHT22;56302;52.322;5.926;2023-05-07T04:50:04;13.00;99.80
69189;DHT22;56302;52.322;5.926;2023-05-07T04:52:30;13.00;99.70
69189;DHT22;56302;52.322;5.926;2023-05-07T04:54:58;13.00;99.70
69189;DHT22;56302;52.322;5.926;2023-05-07T04:57:24;13.00;99.70
69189;DHT22;56302;52.322;5.926;2023-05-07T04:59:49;13.00;99.70
69189;DHT22;56302;52.322;5.926;2023-05-07T05:02:15;13.00;99.70
69189;DHT22;56302;52.322;5.926;2023-05-07T05:04:41;13.00;99.60
69189;DHT22;56302;52.322;5.926;2023-05-07T05:07:07;13.00;99.60
69189;DHT22;56302;52.322;5.926;2023-05-07T05:09:32;13.00;99.50
69189;DHT22;56302;52.322;5.926;2023-05-07T05:11:58;13.00;99.50
69189;DHT22;56302;52.322;5.926;2023-05-07T05:14:24;13.00;99.40
69189;DHT22;56302;52.322;5.926;2023-05-07T05:16:49;13.00;99.40
69189;DHT22;56302;52.322;5.926;2023-05-07T05:19:15;13.10;99.10
69189;DHT22;56302;52.322;5.926;2023-05-07T05:21:40;13.10;99.00
69189;DHT22;56302;52.322;5.926;2023-05-07T05:24:06;13.00;99.00
69189;DHT22;56302;52.322;5.926;2023-05-07T05:26:32;13.00;99.00
69189;DHT22;56302;52.322;5.926;2023-05-07T05:28:57;13.00;98.90
69189;DHT22;56302;52.322;5.926;2023-05-07T05:31:23;13.00;98.80
69189;DHT22;56302;52.322;5.926;2023-05-07T05:33:48;13.00;99.00
69189;DHT22;56302;52.322;5.926;2023-05-07T05:36:14;13.00;98.90
69189;DHT22;56302;52.322;5.926;2023-05-07T05:38:40;13.00;98.70
69189;DHT22;56302;52.322;5.926;2023-05-07T05:41:05;13.00;98.80
69189;DHT22;56302;52.322;5.926;2023-05-07T05:43:31;12.90;98.80
69189;DHT22;56302;52.322;5.926;2023-05-07T05:45:57;12.90;98.90
69189;DHT22;56302;52.322;5.926;2023-05-07T05:48:23;12.90;98.60
69189;DHT22;56302;52.322;5.926;2023-05-07T05:50:49;13.00;98.70
69189;DHT22;56302;52.322;5.926;2023-05-07T05:53:14;13.00;98.50
69189;DHT22;56302;52.322;5.926;2023-05-07T05:55:41;13.00;98.50
69189;DHT22;56302;52.322;5.926;2023-05-07T05:58:07;13.00;98.10
69189;DHT22;56302;52.322;5.926;2023-05-07T06:00:33;12.90;98.10
69189;DHT22;56302;52.322;5.926;2023-05-07T06:02:58;12.90;98.10
69189;DHT22;56302;52.322;5.926;2023-05-07T06:05:24;12.80;98.40
69189;DHT22;56302;52.322;5.926;2023-05-07T06:07:49;12.80;98.40
69189;DHT22;56302;52.322;5.926;2023-05-07T06:10:15;12.90;98.30
69189;DHT22;56302;52.322;5.926;2023-05-07T06:12:40;12.90;98.30
69189;DHT22;56302;52.322;5.926;2023-05-07T06:15:06;12.90;98.30
69189;DHT22;56302;52.322;5.926;2023-05-07T06:17:32;12.90;98.00
69189;DHT22;56302;52.322;5.926;2023-05-07T06:19:57;12.90;97.70
69189;DHT22;56302;52.322;5.926;2023-05-07T06:22:23;12.90;97.90
69189;DHT22;56302;52.322;5.926;2023-05-07T06:24:48;12.90;97.70
69189;DHT22;56302;52.322;5.926;2023-05-07T06:27:14;12.90;97.50
69189;DHT22;56302;52.322;5.926;2023-05-07T06:29:39;12.90;97.30
69189;DHT22;56302;52.322;5.926;2023-05-07T06:32:09;12.90;97.10
69189;DHT22;56302;52.322;5.926;2023-05-07T06:34:35;12.90;97.30
69189;DHT22;56302;52.322;5.926;2023-05-07T06:37:01;12.90;97.00
69189;DHT22;56302;52.322;5.926;2023-05-07T06:39:27;12.90;97.20
69189;DHT22;56302;52.322;5.926;2023-05-07T06:41:53;12.90;97.20
69189;DHT22;56302;52.322;5.926;2023-05-07T06:44:18;13.00;96.90
69189;DHT22;56302;52.322;5.926;2023-05-07T06:46:44;13.10;96.90
69189;DHT22;56302;52.322;5.926;2023-05-07T06:49:10;13.10;96.40
69189;DHT22;56302;52.322;5.926;2023-05-07T06:51:36;13.20;96.20
69189;DHT22;56302;52.322;5.926;2023-05-07T06:54:01;13.10;95.70
69189;DHT22;56302;52.322;5.926;2023-05-07T06:56:27;13.10;95.80
69189;DHT22;56302;52.322;5.926;2023-05-07T06:58:52;13.20;95.70
69189;DHT22;56302;52.322;5.926;2023-05-07T07:01:18;13.10;95.50
69189;DHT22;56302;52.322;5.926;2023-05-07T07:03:43;13.00;95.30
69189;DHT22;56302;52.322;5.926;2023-05-07T07:06:09;13.00;95.60
69189;DHT22;56302;52.322;5.926;2023-05-07T07:08:35;13.00;95.90
69189;DHT22;56302;52.322;5.926;2023-05-07T07:11:00;13.10;95.90
69189;DHT22;56302;52.322;5.926;2023-05-07T07:13:26;13.20;95.90
69189;DHT22;56302;52.322;5.926;2023-05-07T07:15:52;13.30;95.80
69189;DHT22;56302;52.322;5.926;2023-05-07T07:18:18;13.20;95.30
69189;DHT22;56302;52.322;5.926;2023-05-07T07:20:44;13.30;95.40
69189;DHT22;56302;52.322;5.926;2023-05-07T07:23:09;13.30;95.20
69189;DHT22;56302;52.322;5.926;2023-05-07T07:25:35;13.20;94.40
69189;DHT22;56302;52.322;5.926;2023-05-07T07:28:01;13.20;94.80
69189;DHT22;56302;52.322;5.926;2023-05-07T07:30:26;13.30;95.30
69189;DHT22;56302;52.322;5.926;2023-05-07T07:32:52;13.40;95.30
69189;DHT22;56302;52.322;5.926;2023-05-07T07:35:18;13.30;94.60
69189;DHT22;56302;52.322;5.926;2023-05-07T07:37:43;13.40;95.10
69189;DHT22;56302;52.322;5.926;2023-05-07T07:40:09;13.50;95.10
69189;DHT22;56302;52.322;5.926;2023-05-07T07:42:35;13.50;94.70
69189;DHT22;56302;52.322;5.926;2023-05-07T07:45:00;13.60;95.10
69189;DHT22;56302;52.322;5.926;2023-05-07T07:47:26;13.60;94.30
69189;DHT22;56302;52.322;5.926;2023-05-07T07:49:51;13.60;94.10
69189;DHT22;56302;52.322;5.926;2023-05-07T07:52:18;13.60;94.00
69189;DHT22;56302;52.322;5.926;2023-05-07T07:54:44;13.70;93.80
69189;DHT22;56302;52.322;5.926;2023-05-07T07:57:10;13.70;94.50
69189;DHT22;56302;52.322;5.926;2023-05-07T07:59:35;13.80;93.90
69189;DHT22;56302;52.322;5.926;2023-05-07T08:02:01;14.00;94.20
69189;DHT22;56302;52.322;5.926;2023-05-07T08:04:26;14.30;93.10
69189;DHT22;56302;52.322;5.926;2023-05-07T08:06:52;14.60;92.90
69189;DHT22;56302;52.322;5.926;2023-05-07T08:09:19;15.00;91.70
69189;DHT22;56302;52.322;5.926;2023-05-07T08:11:45;15.20;91.80
69189;DHT22;56302;52.322;5.926;2023-05-07T08:14:11;15.50;90.90
69189;DHT22;56302;52.322;5.926;2023-05-07T08:16:36;15.50;89.60
69189;DHT22;56302;52.322;5.926;2023-05-07T08:19:02;15.60;88.40
69189;DHT22;56302;52.322;5.926;2023-05-07T08:21:28;15.80;88.20
69189;DHT22;56302;52.322;5.926;2023-05-07T08:23:54;15.90;86.90
69189;DHT22;56302;52.322;5.926;2023-05-07T08:26:19;16.20;87.10
69189;DHT22;56302;52.322;5.926;2023-05-07T08:28:45;16.60;86.70
69189;DHT22;56302;52.322;5.926;2023-05-07T08:31:11;16.70;86.70
69189;DHT22;56302;52.322;5.926;2023-05-07T08:33:36;16.70;84.90
69189;DHT22;56302;52.322;5.926;2023-05-07T08:36:04;16.40;84.00
69189;DHT22;56302;52.322;5.926;2023-05-07T08:38:29;16.30;86.40
69189;DHT22;56302;52.322;5.926;2023-05-07T08:40:55;16.40;85.60
69189;DHT22;56302;52.322;5.926;2023-05-07T08:43:21;16.50;85.90
69189;DHT22;56302;52.322;5.926;2023-05-07T08:45:52;16.60;85.90
69189;DHT22;56302;52.322;5.926;2023-05-07T08:48:19;16.70;83.80
69189;DHT22;56302;52.322;5.926;2023-05-07T08:50:47;16.70;84.70
69189;DHT22;56302;52.322;5.926;2023-05-07T08:53:13;16.40;82.70
69189;DHT22;56302;52.322;5.926;2023-05-07T08:55:39;16.00;83.90
69189;DHT22;56302;52.322;5.926;2023-05-07T08:58:04;16.00;85.20
69189;DHT22;56302;52.322;5.926;2023-05-07T09:00:30;16.00;86.60
69189;DHT22;56302;52.322;5.926;2023-05-07T09:02:56;16.00;86.10
69189;DHT22;56302;52.322;5.926;2023-05-07T09:05:21;16.20;85.90
69189;DHT22;56302;52.322;5.926;2023-05-07T09:07:47;16.10;84.90
69189;DHT22;56302;52.322;5.926;2023-05-07T09:10:13;16.20;85.30
69189;DHT22;56302;52.322;5.926;2023-05-07T09:12:40;16.30;84.30
69189;DHT22;56302;52.322;5.926;2023-05-07T09:15:06;16.40;83.90
69189;DHT22;56302;52.322;5.926;2023-05-07T09:17:32;16.40;82.90
69189;DHT22;56302;52.322;5.926;2023-05-07T09:20:05;16.40;84.10
69189;DHT22;56302;52.322;5.926;2023-05-07T09:22:36;16.40;84.10
69189;DHT22;56302;52.322;5.926;2023-05-07T09:25:02;16.40;84.60
69189;DHT22;56302;52.322;5.926;2023-05-07T09:27:27;16.30;83.20
69189;DHT22;56302;52.322;5.926;2023-05-07T09:29:53;16.30;84.40
69189;DHT22;56302;52.322;5.926;2023-05-07T09:32:18;16.50;83.90
69189;DHT22;56302;52.322;5.926;2023-05-07T09:34:44;16.30;84.00
69189;DHT22;56302;52.322;5.926;2023-05-07T09:37:12;16.50;85.10
69189;DHT22;56302;52.322;5.926;2023-05-07T09:39:47;16.80;84.20
69189;DHT22;56302;52.322;5.926;2023-05-07T09:42:13;17.30;84.60
69189;DHT22;56302;52.322;5.926;2023-05-07T09:44:41;17.30;81.80
69189;DHT22;56302;52.322;5.926;2023-05-07T09:47:07;17.20;82.30
69189;DHT22;56302;52.322;5.926;2023-05-07T09:49:37;17.10;82.20
69189;DHT22;56302;52.322;5.926;2023-05-07T09:52:05;17.30;82.30
69189;DHT22;56302;52.322;5.926;2023-05-07T09:54:32;17.30;81.00
69189;DHT22;56302;52.322;5.926;2023-05-07T09:57:01;17.30;80.90
69189;DHT22;56302;52.322;5.926;2023-05-07T09:59:27;17.20;80.90
69189;DHT22;56302;52.322;5.926;2023-05-07T10:01:57;17.10;82.40
69189;DHT22;56302;52.322;5.926;2023-05-07T10:04:25;17.30;81.50
69189;DHT22;56302;52.322;5.926;2023-05-07T10:06:51;17.10;80.60
69189;DHT22;56302;52.322;5.926;2023-05-07T10:09:16;16.90;81.00
69189;DHT22;56302;52.322;5.926;2023-05-07T10:11:42;16.80;81.50
69189;DHT22;56302;52.322;5.926;2023-05-07T10:14:09;16.60;81.90
69189;DHT22;56302;52.322;5.926;2023-05-07T10:16:36;16.60;83.10
69189;DHT22;56302;52.322;5.926;2023-05-07T10:19:03;16.70;83.10
69189;DHT22;56302;52.322;5.926;2023-05-07T10:21:30;16.60;84.00
69189;DHT22;56302;52.322;5.926;2023-05-07T10:24:16;16.50;83.10
69189;DHT22;56302;52.322;5.926;2023-05-07T10:26:48;16.50;83.90
69189;DHT22;56302;52.322;5.926;2023-05-07T10:29:21;16.60;83.90
69189;DHT22;56302;52.322;5.926;2023-05-07T10:34:26;16.80;84.10
69189;DHT22;56302;52.322;5.926;2023-05-07T10:36:54;16.90;84.50
69189;DHT22;56302;52.322;5.926;2023-05-07T10:39:21;16.80;82.80
69189;DHT22;56302;52.322;5.926;2023-05-07T10:41:47;16.80;84.60
69189;DHT22;56302;52.322;5.926;2023-05-07T10:44:28;16.80;83.90
69189;DHT22;56302;52.322;5.926;2023-05-07T10:47:15;16.90;84.20
69189;DHT22;56302;52.322;5.926;2023-05-07T10:52:21;17.20;83.80
69189;DHT22;56302;52.322;5.926;2023-05-07T10:57:40;16.90;84.00
69189;DHT22;56302;52.322;5.926;2023-05-07T11:03:04;17.20;82.60
69189;DHT22;56302;52.322;5.926;2023-05-07T11:05:32;17.30;83.50
69189;DHT22;56302;52.322;5.926;2023-05-07T11:08:00;17.60;83.80
69189;DHT22;56302;52.322;5.926;2023-05-07T11:13:14;17.60;83.50
69189;DHT22;56302;52.322;5.926;2023-05-07T11:15:42;17.40;83.20
69189;DHT22;56302;52.322;5.926;2023-05-07T11:18:09;17.40;83.50
69189;DHT22;56302;52.322;5.926;2023-05-07T11:28:37;17.60;80.30
69189;DHT22;56302;52.322;5.926;2023-05-07T11:31:03;17.50;81.30
69189;DHT22;56302;52.322;5.926;2023-05-07T11:33:30;17.50;81.80
69189;DHT22;56302;52.322;5.926;2023-05-07T11:35:56;17.70;81.90
69189;DHT22;56302;52.322;5.926;2023-05-07T11:38:21;17.70;80.70
69189;DHT22;56302;52.322;5.926;2023-05-07T11:43:16;17.50;80.10
69189;DHT22;56302;52.322;5.926;2023-05-07T11:45:42;17.50;81.00
69189;DHT22;56302;52.322;5.926;2023-05-07T11:48:08;17.40;81.40
69189;DHT22;56302;52.322;5.926;2023-05-07T11:50:33;17.50;81.20
69189;DHT22;56302;52.322;5.926;2023-05-07T11:52:59;17.50;81.60
69189;DHT22;56302;52.322;5.926;2023-05-07T11:55:24;17.60;82.30
69189;DHT22;56302;52.322;5.926;2023-05-07T11:57:51;17.60;81.60
69189;DHT22;56302;52.322;5.926;2023-05-07T12:00:17;17.70;81.80
69189;DHT22;56302;52.322;5.926;2023-05-07T12:02:44;17.70;81.50
69189;DHT22;56302;52.322;5.926;2023-05-07T12:05:10;17.60;81.20
69189;DHT22;56302;52.322;5.926;2023-05-07T12:07:36;17.60;82.40
69189;DHT22;56302;52.322;5.926;2023-05-07T12:10:05;17.60;82.30
69189;DHT22;56302;52.322;5.926;2023-05-07T12:12:38;17.60;81.30
69189;DHT22;56302;52.322;5.926;2023-05-07T12:15:04;17.50;81.70
69189;DHT22;56302;52.322;5.926;2023-05-07T12:17:30;17.50;81.10
69189;DHT22;56302;52.322;5.926;2023-05-07T12:19:55;17.40;83.10
69189;DHT22;56302;52.322;5.926;2023-05-07T12:22:21;17.50;82.00
69189;DHT22;56302;52.322;5.926;2023-05-07T12:24:49;17.70;81.90
69189;DHT22;56302;52.322;5.926;2023-05-07T12:27:15;17.80;82.10
69189;DHT22;56302;52.322;5.926;2023-05-07T12:29:48;17.70;80.30
69189;DHT22;56302;52.322;5.926;2023-05-07T12:32:18;17.70;80.10
69189;DHT22;56302;52.322;5.926;2023-05-07T12:34:45;17.60;80.80
69189;DHT22;56302;52.322;5.926;2023-05-07T12:37:10;17.70;81.10
69189;DHT22;56302;52.322;5.926;2023-05-07T12:39:38;17.80;80.00
69189;DHT22;56302;52.322;5.926;2023-05-07T12:42:03;18.10;80.40
69189;DHT22;56302;52.322;5.926;2023-05-07T12:44:32;18.20;79.70
69189;DHT22;56302;52.322;5.926;2023-05-07T12:46:58;18.10;80.60
69189;DHT22;56302;52.322;5.926;2023-05-07T12:49:26;17.90;80.50
69189;DHT22;56302;52.322;5.926;2023-05-07T12:51:53;17.80;80.10
69189;DHT22;56302;52.322;5.926;2023-05-07T12:54:32;18.10;80.50
69189;DHT22;56302;52.322;5.926;2023-05-07T12:57:08;18.30;80.70
69189;DHT22;56302;52.322;5.926;2023-05-07T12:59:34;18.20;80.10
69189;DHT22;56302;52.322;5.926;2023-05-07T13:02:00;18.20;81.10
69189;DHT22;56302;52.322;5.926;2023-05-07T13:04:26;18.60;80.00
69189;DHT22;56302;52.322;5.926;2023-05-07T13:06:51;18.60;79.30
69189;DHT22;56302;52.322;5.926;2023-05-07T13:09:17;18.80;78.70
69189;DHT22;56302;52.322;5.926;2023-05-07T13:11:42;18.90;77.80
69189;DHT22;56302;52.322;5.926;2023-05-07T13:14:08;18.70;77.40
69189;DHT22;56302;52.322;5.926;2023-05-07T13:16:33;18.70;77.30
69189;DHT22;56302;52.322;5.926;2023-05-07T13:18:59;18.60;75.30
69189;DHT22;56302;52.322;5.926;2023-05-07T13:21:24;18.50;76.80
69189;DHT22;56302;52.322;5.926;2023-05-07T13:23:50;18.50;77.30
69189;DHT22;56302;52.322;5.926;2023-05-07T13:26:16;18.60;77.60
69189;DHT22;56302;52.322;5.926;2023-05-07T13:28:41;18.70;76.10
69189;DHT22;56302;52.322;5.926;2023-05-07T13:31:07;18.80;77.10
69189;DHT22;56302;52.322;5.926;2023-05-07T13:33:32;18.70;76.00
69189;DHT22;56302;52.322;5.926;2023-05-07T13:35:58;18.70;75.50
69189;DHT22;56302;52.322;5.926;2023-05-07T13:38:25;18.80;75.80
69189;DHT22;56302;52.322;5.926;2023-05-07T13:40:51;18.80;75.80
69189;DHT22;56302;52.322;5.926;2023-05-07T13:43:16;18.90;75.30
69189;DHT22;56302;52.322;5.926;2023-05-07T13:45:44;19.00;75.90
69189;DHT22;56302;52.322;5.926;2023-05-07T13:48:09;19.00;76.40
69189;DHT22;56302;52.322;5.926;2023-05-07T13:50:35;19.00;74.60
69189;DHT22;56302;52.322;5.926;2023-05-07T13:53:00;19.00;75.50
69189;DHT22;56302;52.322;5.926;2023-05-07T13:55:28;19.00;75.30
69189;DHT22;56302;52.322;5.926;2023-05-07T13:57:59;18.90;75.80
69189;DHT22;56302;52.322;5.926;2023-05-07T14:00:26;18.80;74.90
69189;DHT22;56302;52.322;5.926;2023-05-07T14:02:52;18.80;75.00
69189;DHT22;56302;52.322;5.926;2023-05-07T14:05:18;18.80;75.00
69189;DHT22;56302;52.322;5.926;2023-05-07T14:07:44;18.80;76.30
69189;DHT22;56302;52.322;5.926;2023-05-07T14:10:10;18.70;75.40
69189;DHT22;56302;52.322;5.926;2023-05-07T14:12:36;18.70;75.60
69189;DHT22;56302;52.322;5.926;2023-05-07T14:15:02;18.70;76.00
69189;DHT22;56302;52.322;5.926;2023-05-07T14:17:28;18.60;75.80
69189;DHT22;56302;52.322;5.926;2023-05-07T14:19:53;18.60;76.30
69189;DHT22;56302;52.322;5.926;2023-05-07T14:22:21;18.70;75.80
69189;DHT22;56302;52.322;5.926;2023-05-07T14:24:47;18.80;75.40
69189;DHT22;56302;52.322;5.926;2023-05-07T14:27:12;18.80;75.10
69189;DHT22;56302;52.322;5.926;2023-05-07T14:29:38;18.70;76.30
69189;DHT22;56302;52.322;5.926;2023-05-07T14:32:04;18.80;74.50
69189;DHT22;56302;52.322;5.926;2023-05-07T14:34:29;18.80;74.80
69189;DHT22;56302;52.322;5.926;2023-05-07T14:36:55;18.80;75.50
69189;DHT22;56302;52.322;5.926;2023-05-07T14:39:21;18.80;75.20
69189;DHT22;56302;52.322;5.926;2023-05-07T14:41:46;18.80;75.70
69189;DHT22;56302;52.322;5.926;2023-05-07T14:44:12;18.80;76.00
69189;DHT22;56302;52.322;5.926;2023-05-07T14:46:37;18.80;75.20
69189;DHT22;56302;52.322;5.926;2023-05-07T14:49:03;18.80;75.20
69189;DHT22;56302;52.322;5.926;2023-05-07T14:51:28;18.70;76.50
69189;DHT22;56302;52.322;5.926;2023-05-07T14:53:54;18.70;76.20
69189;DHT22;56302;52.322;5.926;2023-05-07T14:56:20;18.60;76.00
69189;DHT22;56302;52.322;5.926;2023-05-07T14:58:47;18.50;76.10
69189;DHT22;56302;52.322;5.926;2023-05-07T15:01:14;18.50;76.30
69189;DHT22;56302;52.322;5.926;2023-05-07T15:03:40;18.60;76.30
69189;DHT22;56302;52.322;5.926;2023-05-07T15:06:05;18.50;76.30
69189;DHT22;56302;52.322;5.926;2023-05-07T15:08:31;18.50;77.10
69189;DHT22;56302;52.322;5.926;2023-05-07T15:10:56;18.50;77.20
69189;DHT22;56302;52.322;5.926;2023-05-07T15:13:22;18.50;76.80
69189;DHT22;56302;52.322;5.926;2023-05-07T15:15:48;18.40;76.70
69189;DHT22;56302;52.322;5.926;2023-05-07T15:18:15;18.40;77.60
69189;DHT22;56302;52.322;5.926;2023-05-07T15:20:41;18.40;76.90
69189;DHT22;56302;52.322;5.926;2023-05-07T15:23:07;18.40;76.60
69189;DHT22;56302;52.322;5.926;2023-05-07T15:25:39;18.40;77.20
69189;DHT22;56302;52.322;5.926;2023-05-07T15:28:05;18.30;76.50
69189;DHT22;56302;52.322;5.926;2023-05-07T15:30:30;18.30;76.70
69189;DHT22;56302;52.322;5.926;2023-05-07T15:32:56;18.40;76.80
69189;DHT22;56302;52.322;5.926;2023-05-07T15:35:22;18.40;76.40
69189;DHT22;56302;52.322;5.926;2023-05-07T15:37:48;18.40;76.40
69189;DHT22;56302;52.322;5.926;2023-05-07T15:40:18;18.40;77.00
69189;DHT22;56302;52.322;5.926;2023-05-07T15:42:44;18.30;76.90
69189;DHT22;56302;52.322;5.926;2023-05-07T15:45:10;18.40;76.70
69189;DHT22;56302;52.322;5.926;2023-05-07T15:47:36;18.30;76.40